createdAt,value
2022-07-30T00:05:45.112Z,1.00
2022-07-30T00:15:51.038Z,0.70
2022-07-30T00:25:56.926Z,1.30
2022-07-30T00:36:02.830Z,1.30
2022-07-30T00:46:08.835Z,1.20
2022-07-30T00:56:14.671Z,1.30
2022-07-30T01:06:20.766Z,0.80
2022-07-30T01:16:26.715Z,0.90
2022-07-30T01:26:34.029Z,1.30
2022-07-30T01:36:40.351Z,1.00
2022-07-30T01:46:47.444Z,0.90
2022-07-30T01:56:55.369Z,1.10
2022-07-30T02:07:05.848Z,0.80
2022-07-30T02:17:19.123Z,1.20
2022-07-30T02:27:32.219Z,0.90
2022-07-30T02:37:42.922Z,0.60
2022-07-30T02:47:55.001Z,0.90
2022-07-30T02:58:02.509Z,0.90
2022-07-30T03:08:10.914Z,1.10
2022-07-30T03:28:23.257Z,1.00
2022-07-30T03:38:29.768Z,1.20
2022-07-30T03:48:37.905Z,1.10
2022-07-30T03:58:43.854Z,1.70
2022-07-30T04:08:49.561Z,1.50
2022-07-30T04:18:58.467Z,1.10
2022-07-30T04:29:06.302Z,1.30
2022-07-30T04:39:12.254Z,1.30
2022-07-30T04:49:20.598Z,2.10
2022-07-30T04:59:27.959Z,1.10
2022-07-30T05:09:34.711Z,1.40
2022-07-30T05:19:40.601Z,1.60
2022-07-30T05:29:46.427Z,1.60
2022-07-30T05:39:59.251Z,1.40
2022-07-30T05:50:10.195Z,1.80
2022-07-30T06:00:17.486Z,1.60
2022-07-30T06:10:23.520Z,1.50
2022-07-30T06:20:29.548Z,2.70
2022-07-30T06:30:35.329Z,1.90
2022-07-30T06:40:41.847Z,2.30
2022-07-30T06:50:47.656Z,2.40
2022-07-30T07:00:53.471Z,1.90
2022-07-30T07:10:59.275Z,1.90
2022-07-30T07:21:04.975Z,2.50
2022-07-30T07:31:11.985Z,1.90
2022-07-30T07:41:48.209Z,2.50
2022-07-30T07:51:54.912Z,2.10
2022-07-30T08:02:03.803Z,2.20
2022-07-30T08:12:10.523Z,1.80
2022-07-30T08:22:16.295Z,3.20
2022-07-30T08:32:22.029Z,3.70
2022-07-30T08:42:30.284Z,3.40
2022-07-30T08:52:38.864Z,3.70
2022-07-30T09:02:45.141Z,3.80
2022-07-30T09:12:50.916Z,3.70
2022-07-30T09:22:59.366Z,3.00
2022-07-30T09:43:12.524Z,3.10
2022-07-30T09:53:19.095Z,3.30
2022-07-30T10:03:34.096Z,3.40
2022-07-30T10:23:52.540Z,4.00
2022-07-30T10:33:59.259Z,3.50
2022-07-30T10:44:39.038Z,3.20
2022-07-30T10:54:47.504Z,3.40
2022-07-30T11:05:13.313Z,2.90
2022-07-30T11:15:22.394Z,2.40
2022-07-30T11:25:51.155Z,2.30
2022-07-30T11:36:17.450Z,3.10
2022-07-30T11:46:29.860Z,2.90
2022-07-30T11:56:36.238Z,3.20
2022-07-30T12:06:48.648Z,3.10
2022-07-30T12:16:55.490Z,4.40
2022-07-30T12:27:08.545Z,4.70
2022-07-30T12:37:15.444Z,4.00
2022-07-30T12:47:26.261Z,3.80
2022-07-30T12:57:45.526Z,4.60
2022-07-30T13:08:00.296Z,3.80
2022-07-30T13:18:06.328Z,4.00
2022-07-30T13:28:12.185Z,4.10
2022-07-30T13:38:18.347Z,4.80
2022-07-30T13:48:24.173Z,3.20
2022-07-30T13:58:35.754Z,4.80
2022-07-30T14:08:42.078Z,4.60
2022-07-30T14:18:48.084Z,4.20
2022-07-30T14:28:53.737Z,5.70
2022-07-30T14:39:00.493Z,4.90
2022-07-30T14:49:06.530Z,5.30
2022-07-30T14:59:12.610Z,6.10
2022-07-30T15:09:19.839Z,5.20
2022-07-30T15:19:26.936Z,4.80
2022-07-30T15:29:32.750Z,5.00
2022-07-30T15:39:38.810Z,5.70
2022-07-30T15:49:44.815Z,4.50
2022-07-30T15:59:51.042Z,4.00
2022-07-30T16:09:57.480Z,5.10
2022-07-30T16:20:03.987Z,4.40
2022-07-30T16:30:12.818Z,4.80
2022-07-30T16:40:18.563Z,4.60
2022-07-30T16:50:24.572Z,4.70
2022-07-30T17:00:30.804Z,4.80
2022-07-30T17:10:36.655Z,4.10
2022-07-30T17:20:42.894Z,3.90
2022-07-30T17:30:49.036Z,3.30
2022-07-30T17:40:54.728Z,4.10
2022-07-30T17:51:00.730Z,3.30
2022-07-30T18:01:08.460Z,3.20
2022-07-30T18:11:14.681Z,2.80
2022-07-30T18:21:20.850Z,3.00
2022-07-30T18:31:26.691Z,3.60
2022-07-30T18:41:32.483Z,3.20
2022-07-30T18:51:38.628Z,3.60
2022-07-30T19:01:44.366Z,3.20
2022-07-30T19:11:50.390Z,2.80
2022-07-30T19:21:56.981Z,3.50
2022-07-30T19:32:02.841Z,3.40
2022-07-30T19:42:10.119Z,3.60
2022-07-30T19:52:25.238Z,3.40
2022-07-30T20:02:35.599Z,2.90
2022-07-30T20:12:49.405Z,3.00
2022-07-30T20:22:55.534Z,3.20
2022-07-30T20:33:01.435Z,2.40
2022-07-30T20:43:07.637Z,2.50
2022-07-30T20:53:13.903Z,3.40
2022-07-30T21:03:21.451Z,2.60
2022-07-30T21:13:27.676Z,2.90
2022-07-30T21:23:34.294Z,2.80
2022-07-30T21:33:40.608Z,2.80
2022-07-30T21:43:49.243Z,2.60
2022-07-30T21:53:55.166Z,1.90
2022-07-30T22:04:07.799Z,2.00
2022-07-30T22:14:13.865Z,1.00
2022-07-30T22:24:29.827Z,1.20
2022-07-30T22:34:36.935Z,1.00
2022-07-30T22:44:46.253Z,0.70
2022-07-30T22:54:53.305Z,0.80
2022-07-30T23:04:59.234Z,0.60
2022-07-30T23:15:11.590Z,1.10
2022-07-30T23:35:21.707Z,1.00
2022-07-30T23:45:28.047Z,1.60
2022-07-30T23:55:36.160Z,1.40
